sensor_id;sensor_type;location;lat;lon;timestamp;pressure;altitude;pressure_sealevel;temperature;humidity
11806;BME280;5960;42.602;23.482;2022-10-28T00:00:30;94603.94;;;13.41;60.66
11806;BME280;5960;42.602;23.482;2022-10-28T00:02:59;94601.69;;;13.29;61.02
11806;BME280;5960;42.602;23.482;2022-10-28T00:05:25;94605.44;;;13.35;60.84
11806;BME280;5960;42.602;23.482;2022-10-28T00:07:52;94607.34;;;13.49;60.92
11806;BME280;5960;42.602;23.482;2022-10-28T00:10:19;94606.91;;;13.37;60.89
11806;BME280;5960;42.602;23.482;2022-10-28T00:12:47;94607.88;;;13.21;60.74
11806;BME280;5960;42.602;23.482;2022-10-28T00:15:14;94602.22;;;13.24;60.87
11806;BME280;5960;42.602;23.482;2022-10-28T00:17:40;94603.03;;;13.25;61.11
11806;BME280;5960;42.602;23.482;2022-10-28T00:20:08;94601.22;;;13.25;60.56
11806;BME280;5960;42.602;23.482;2022-10-28T00:22:35;94602.41;;;13.23;60.67
11806;BME280;5960;42.602;23.482;2022-10-28T00:25:02;94603.63;;;13.12;61.28
11806;BME280;5960;42.602;23.482;2022-10-28T00:27:29;94600.03;;;13.05;61.68
11806;BME280;5960;42.602;23.482;2022-10-28T00:29:59;94593.16;;;12.96;61.42
11806;BME280;5960;42.602;23.482;2022-10-28T00:32:27;94596.38;;;13.06;61.81
11806;BME280;5960;42.602;23.482;2022-10-28T00:34:54;94586.75;;;13.13;61.53
11806;BME280;5960;42.602;23.482;2022-10-28T00:37:21;94594.25;;;13.09;61.43
11806;BME280;5960;42.602;23.482;2022-10-28T00:39:47;94590.63;;;13.02;61.88
11806;BME280;5960;42.602;23.482;2022-10-28T00:42:18;94588.44;;;13.06;61.91
11806;BME280;5960;42.602;23.482;2022-10-28T00:44:52;94583.81;;;13.08;61.23
11806;BME280;5960;42.602;23.482;2022-10-28T00:47:27;94584.47;;;13.10;61.69
11806;BME280;5960;42.602;23.482;2022-10-28T00:49:59;94585.47;;;13.09;61.81
11806;BME280;5960;42.602;23.482;2022-10-28T00:52:29;94587.00;;;13.03;61.88
11806;BME280;5960;42.602;23.482;2022-10-28T00:54:59;94590.81;;;13.01;61.47
11806;BME280;5960;42.602;23.482;2022-10-28T00:57:30;94584.47;;;13.10;61.26
11806;BME280;5960;42.602;23.482;2022-10-28T00:59:58;94594.47;;;13.00;61.87
11806;BME280;5960;42.602;23.482;2022-10-28T01:02:27;94591.41;;;13.11;61.26
11806;BME280;5960;42.602;23.482;2022-10-28T01:04:54;94591.09;;;13.06;61.59
11806;BME280;5960;42.602;23.482;2022-10-28T01:07:21;94595.28;;;13.00;61.72
11806;BME280;5960;42.602;23.482;2022-10-28T01:09:48;94598.91;;;12.99;61.87
11806;BME280;5960;42.602;23.482;2022-10-28T01:12:21;94599.56;;;13.01;61.58
11806;BME280;5960;42.602;23.482;2022-10-28T01:15:00;94590.63;;;13.02;61.50
11806;BME280;5960;42.602;23.482;2022-10-28T01:17:43;94592.09;;;12.82;62.60
11806;BME280;5960;42.602;23.482;2022-10-28T01:23:32;94582.56;;;12.72;62.24
11806;BME280;5960;42.602;23.482;2022-10-28T01:26:29;94582.09;;;12.69;62.36
11806;BME280;5960;42.602;23.482;2022-10-28T01:29:31;94576.47;;;12.72;62.43
11806;BME280;5960;42.602;23.482;2022-10-28T01:32:07;94579.56;;;12.75;62.57
11806;BME280;5960;42.602;23.482;2022-10-28T01:34:42;94591.78;;;12.76;61.95
11806;BME280;5960;42.602;23.482;2022-10-28T01:37:15;94587.97;;;12.79;62.38
11806;BME280;5960;42.602;23.482;2022-10-28T01:39:48;94593.66;;;12.68;62.23
11806;BME280;5960;42.602;23.482;2022-10-28T01:42:24;94598.31;;;12.57;62.53
11806;BME280;5960;42.602;23.482;2022-10-28T01:45:00;94589.63;;;12.48;62.47
11806;BME280;5960;42.602;23.482;2022-10-28T01:47:31;94593.97;;;12.41;63.30
11806;BME280;5960;42.602;23.482;2022-10-28T01:50:03;94597.75;;;12.39;63.07
11806;BME280;5960;42.602;23.482;2022-10-28T01:52:31;94601.91;;;12.33;63.13
11806;BME280;5960;42.602;23.482;2022-10-28T01:55:01;94598.06;;;12.44;63.22
11806;BME280;5960;42.602;23.482;2022-10-28T01:57:31;94599.78;;;12.28;63.10
11806;BME280;5960;42.602;23.482;2022-10-28T02:00:00;94601.72;;;12.34;62.71
11806;BME280;5960;42.602;23.482;2022-10-28T02:02:31;94610.56;;;12.18;64.06
11806;BME280;5960;42.602;23.482;2022-10-28T02:05:04;94609.69;;;12.26;63.59
11806;BME280;5960;42.602;23.482;2022-10-28T02:07:31;94617.66;;;12.18;63.92
11806;BME280;5960;42.602;23.482;2022-10-28T02:10:02;94608.44;;;11.97;64.86
11806;BME280;5960;42.602;23.482;2022-10-28T02:12:36;94604.47;;;11.93;64.96
11806;BME280;5960;42.602;23.482;2022-10-28T02:15:17;94604.19;;;11.80;65.61
11806;BME280;5960;42.602;23.482;2022-10-28T02:18:04;94598.56;;;11.74;65.83
11806;BME280;5960;42.602;23.482;2022-10-28T02:20:39;94597.59;;;11.67;66.00
11806;BME280;5960;42.602;23.482;2022-10-28T02:23:19;94593.81;;;11.70;65.89
11806;BME280;5960;42.602;23.482;2022-10-28T02:25:52;94593.28;;;11.83;65.19
11806;BME280;5960;42.602;23.482;2022-10-28T02:28:23;94592.97;;;11.78;65.41
11806;BME280;5960;42.602;23.482;2022-10-28T02:30:54;94593.81;;;11.70;65.63
11806;BME280;5960;42.602;23.482;2022-10-28T02:33:30;94600.22;;;11.67;66.61
11806;BME280;5960;42.602;23.482;2022-10-28T02:36:02;94596.75;;;11.75;66.13
11806;BME280;5960;42.602;23.482;2022-10-28T02:38:32;94602.34;;;11.80;65.41
11806;BME280;5960;42.602;23.482;2022-10-28T02:41:03;94603.53;;;11.78;65.84
11806;BME280;5960;42.602;23.482;2022-10-28T02:43:33;94606.50;;;11.83;64.83
11806;BME280;5960;42.602;23.482;2022-10-28T02:46:03;94604.00;;;11.81;65.31
11806;BME280;5960;42.602;23.482;2022-10-28T02:48:36;94604.34;;;11.78;65.49
11806;BME280;5960;42.602;23.482;2022-10-28T02:51:08;94607.97;;;11.77;65.67
11806;BME280;5960;42.602;23.482;2022-10-28T02:53:43;94600.69;;;11.79;66.10
11806;BME280;5960;42.602;23.482;2022-10-28T02:56:14;94599.03;;;11.86;65.31
11806;BME280;5960;42.602;23.482;2022-10-28T02:58:43;94602.00;;;11.92;65.79
11806;BME280;5960;42.602;23.482;2022-10-28T03:01:11;94603.97;;;11.98;65.06
11806;BME280;5960;42.602;23.482;2022-10-28T03:03:39;94606.78;;;11.88;65.09
11806;BME280;5960;42.602;23.482;2022-10-28T03:06:06;94604.31;;;11.86;65.25
11806;BME280;5960;42.602;23.482;2022-10-28T03:08:33;94609.13;;;11.74;65.18
11806;BME280;5960;42.602;23.482;2022-10-28T03:11:00;94607.66;;;11.72;65.35
11806;BME280;5960;42.602;23.482;2022-10-28T03:13:27;94604.84;;;11.73;65.60
11806;BME280;5960;42.602;23.482;2022-10-28T03:15:53;94593.63;;;11.80;65.77
11806;BME280;5960;42.602;23.482;2022-10-28T03:18:20;94601.53;;;11.80;66.13
11806;BME280;5960;42.602;23.482;2022-10-28T03:20:48;94605.19;;;11.79;65.57
11806;BME280;5960;42.602;23.482;2022-10-28T03:23:15;94593.81;;;11.70;65.43
11806;BME280;5960;42.602;23.482;2022-10-28T03:25:42;94595.75;;;11.76;65.67
11806;BME280;5960;42.602;23.482;2022-10-28T03:28:08;94594.28;;;11.82;65.94
11806;BME280;5960;42.602;23.482;2022-10-28T03:30:35;94595.09;;;11.82;65.70
11806;BME280;5960;42.602;23.482;2022-10-28T03:33:02;94607.97;;;11.77;65.28
11806;BME280;5960;42.602;23.482;2022-10-28T03:35:29;94599.56;;;11.73;65.71
11806;BME280;5960;42.602;23.482;2022-10-28T03:37:57;94605.50;;;11.76;65.30
11806;BME280;5960;42.602;23.482;2022-10-28T03:40:23;94606.19;;;11.61;66.08
11806;BME280;5960;42.602;23.482;2022-10-28T03:42:50;94602.72;;;11.61;66.50
11806;BME280;5960;42.602;23.482;2022-10-28T03:45:17;94610.63;;;11.61;66.02
11806;BME280;5960;42.602;23.482;2022-10-28T03:47:43;94611.44;;;11.69;65.81
11806;BME280;5960;42.602;23.482;2022-10-28T03:50:10;94607.34;;;11.58;66.47
11806;BME280;5960;42.602;23.482;2022-10-28T03:52:37;94606.50;;;11.50;66.86
11806;BME280;5960;42.602;23.482;2022-10-28T03:55:06;94610.81;;;11.51;66.62
11806;BME280;5960;42.602;23.482;2022-10-28T03:57:33;94611.78;;;11.50;67.17
11806;BME280;5960;42.602;23.482;2022-10-28T03:59:59;94605.69;;;11.57;67.14
11806;BME280;5960;42.602;23.482;2022-10-28T04:02:26;94601.53;;;11.63;66.77
11806;BME280;5960;42.602;23.482;2022-10-28T04:04:53;94606.00;;;11.63;66.47
11806;BME280;5960;42.602;23.482;2022-10-28T04:07:20;94606.84;;;11.55;66.84
11806;BME280;5960;42.602;23.482;2022-10-28T04:09:46;94605.53;;;11.51;66.60
11806;BME280;5960;42.602;23.482;2022-10-28T04:12:17;94604.22;;;11.47;67.48
11806;BME280;5960;42.602;23.482;2022-10-28T04:14:44;94607.00;;;11.37;67.36
11806;BME280;5960;42.602;23.482;2022-10-28T04:17:11;94604.69;;;11.34;68.06
11806;BME280;5960;42.602;23.482;2022-10-28T04:19:38;94607.34;;;11.25;67.67
11806;BME280;5960;42.602;23.482;2022-10-28T04:22:05;94605.84;;;11.23;67.90
11806;BME280;5960;42.602;23.482;2022-10-28T04:24:32;94609.16;;;11.25;68.17
11806;BME280;5960;42.602;23.482;2022-10-28T04:26:59;94610.16;;;11.32;67.57
11806;BME280;5960;42.602;23.482;2022-10-28T04:29:27;94611.47;;;11.20;67.93
11806;BME280;5960;42.602;23.482;2022-10-28T04:31:53;94612.47;;;11.10;68.52
11806;BME280;5960;42.602;23.482;2022-10-28T04:34:20;94607.50;;;11.07;68.65
11806;BME280;5960;42.602;23.482;2022-10-28T04:36:47;94604.22;;;11.22;68.57
11806;BME280;5960;42.602;23.482;2022-10-28T04:39:13;94602.38;;;11.14;68.88
11806;BME280;5960;42.602;23.482;2022-10-28T04:41:40;94598.59;;;11.00;69.09
11806;BME280;5960;42.602;23.482;2022-10-28T04:44:07;94605.84;;;11.06;69.78
11806;BME280;5960;42.602;23.482;2022-10-28T04:46:35;94604.53;;;11.19;68.82
11806;BME280;5960;42.602;23.482;2022-10-28T04:49:02;94609.31;;;11.32;68.57
11806;BME280;5960;42.602;23.482;2022-10-28T04:51:29;94606.69;;;11.40;68.74
11806;BME280;5960;42.602;23.482;2022-10-28T04:53:55;94600.41;;;11.33;68.54
11806;BME280;5960;42.602;23.482;2022-10-28T04:56:22;94607.00;;;11.37;68.26
11806;BME280;5960;42.602;23.482;2022-10-28T04:58:49;94599.91;;;11.46;67.70
11806;BME280;5960;42.602;23.482;2022-10-28T05:01:15;94608.16;;;11.51;66.81
11806;BME280;5960;42.602;23.482;2022-10-28T05:03:43;94606.03;;;11.46;66.60
11806;BME280;5960;42.602;23.482;2022-10-28T05:06:10;94615.59;;;11.39;67.13
11806;BME280;5960;42.602;23.482;2022-10-28T05:08:37;94617.25;;;11.40;66.97
11806;BME280;5960;42.602;23.482;2022-10-28T05:11:04;94619.72;;;11.33;67.25
11806;BME280;5960;42.602;23.482;2022-10-28T05:13:30;94620.72;;;11.32;67.80
11806;BME280;5960;42.602;23.482;2022-10-28T05:15:57;94622.03;;;11.36;67.60
11806;BME280;5960;42.602;23.482;2022-10-28T05:18:24;94617.41;;;11.30;67.75
11806;BME280;5960;42.602;23.482;2022-10-28T05:20:52;94618.38;;;11.21;67.89
11806;BME280;5960;42.602;23.482;2022-10-28T05:23:19;94622.19;;;11.18;68.34
11806;BME280;5960;42.602;23.482;2022-10-28T05:25:46;94619.72;;;11.25;68.08
11806;BME280;5960;42.602;23.482;2022-10-28T05:28:13;94626.28;;;11.21;68.48
11806;BME280;5960;42.602;23.482;2022-10-28T05:30:41;94631.59;;;11.12;68.48
11806;BME280;5960;42.602;23.482;2022-10-28T05:33:08;94632.56;;;11.20;68.72
11806;BME280;5960;42.602;23.482;2022-10-28T05:35:35;94635.88;;;11.38;67.74
11806;BME280;5960;42.602;23.482;2022-10-28T05:38:03;94628.13;;;11.62;67.06
11806;BME280;5960;42.602;23.482;2022-10-28T05:40:30;94634.22;;;11.70;67.61
11806;BME280;5960;42.602;23.482;2022-10-28T05:42:58;94633.22;;;11.80;66.39
11806;BME280;5960;42.602;23.482;2022-10-28T05:45:24;94631.72;;;11.77;66.84
11806;BME280;5960;42.602;23.482;2022-10-28T05:47:51;94638.66;;;11.86;66.19
11806;BME280;5960;42.602;23.482;2022-10-28T05:50:19;94628.41;;;11.83;66.82
11806;BME280;5960;42.602;23.482;2022-10-28T05:52:47;94641.28;;;11.95;66.34
11806;BME280;5960;42.602;23.482;2022-10-28T05:55:15;94639.94;;;12.15;66.49
11806;BME280;5960;42.602;23.482;2022-10-28T05:57:43;94641.88;;;12.38;65.17
11806;BME280;5960;42.602;23.482;2022-10-28T06:00:11;94647.06;;;12.63;64.84
11806;BME280;5960;42.602;23.482;2022-10-28T06:02:39;94650.06;;;12.91;63.39
11806;BME280;5960;42.602;23.482;2022-10-28T06:05:06;94651.91;;;13.14;63.37
11806;BME280;5960;42.602;23.482;2022-10-28T06:07:33;94661.28;;;13.48;62.17
11806;BME280;5960;42.602;23.482;2022-10-28T06:10:00;94657.38;;;13.82;60.85
11806;BME280;5960;42.602;23.482;2022-10-28T06:12:28;94656.72;;;14.04;60.12
11806;BME280;5960;42.602;23.482;2022-10-28T06:14:55;94660.25;;;14.11;59.41
11806;BME280;5960;42.602;23.482;2022-10-28T06:17:22;94664.13;;;14.23;58.99
11806;BME280;5960;42.602;23.482;2022-10-28T06:19:49;94661.09;;;14.41;58.69
11806;BME280;5960;42.602;23.482;2022-10-28T06:22:16;94666.88;;;14.60;58.12
11806;BME280;5960;42.602;23.482;2022-10-28T06:24:43;94670.00;;;14.79;57.78
11806;BME280;5960;42.602;23.482;2022-10-28T06:27:10;94674.44;;;14.93;57.34
11806;BME280;5960;42.602;23.482;2022-10-28T06:29:38;94673.63;;;15.08;56.52
11806;BME280;5960;42.602;23.482;2022-10-28T06:32:08;94680.28;;;15.18;56.24
11806;BME280;5960;42.602;23.482;2022-10-28T06:34:35;94676.09;;;15.31;56.15
11806;BME280;5960;42.602;23.482;2022-10-28T06:37:03;94667.03;;;15.40;55.86
11806;BME280;5960;42.602;23.482;2022-10-28T06:39:31;94672.88;;;15.57;54.88
11806;BME280;5960;42.602;23.482;2022-10-28T06:41:58;94674.69;;;15.72;54.79
11806;BME280;5960;42.602;23.482;2022-10-28T06:44:25;94672.78;;;15.87;54.02
11806;BME280;5960;42.602;23.482;2022-10-28T06:46:53;94671.78;;;15.88;54.12
11806;BME280;5960;42.602;23.482;2022-10-28T06:49:20;94676.63;;;16.06;53.97
11806;BME280;5960;42.602;23.482;2022-10-28T06:51:47;94679.38;;;16.20;53.49
11806;BME280;5960;42.602;23.482;2022-10-28T06:54:14;94681.56;;;16.38;52.76
11806;BME280;5960;42.602;23.482;2022-10-28T06:56:41;94675.47;;;16.44;52.61
11806;BME280;5960;42.602;23.482;2022-10-28T06:59:09;94674.50;;;16.59;51.99
11806;BME280;5960;42.602;23.482;2022-10-28T07:01:36;94685.44;;;16.70;51.54
11806;BME280;5960;42.602;23.482;2022-10-28T07:04:05;94686.91;;;16.80;51.36
11806;BME280;5960;42.602;23.482;2022-10-28T07:06:32;94685.31;;;16.92;51.04
11806;BME280;5960;42.602;23.482;2022-10-28T07:08:58;94676.53;;;16.92;50.64
11806;BME280;5960;42.602;23.482;2022-10-28T07:11:25;94676.78;;;16.97;51.34
11806;BME280;5960;42.602;23.482;2022-10-28T07:13:52;94675.19;;;17.09;50.42
11806;BME280;5960;42.602;23.482;2022-10-28T07:16:18;94675.84;;;17.18;50.75
11806;BME280;5960;42.602;23.482;2022-10-28T07:18:45;94675.72;;;17.47;50.24
11806;BME280;5960;42.602;23.482;2022-10-28T07:21:14;94684.72;;;17.52;49.78
11806;BME280;5960;42.602;23.482;2022-10-28T07:23:42;94680.25;;;17.66;49.33
11806;BME280;5960;42.602;23.482;2022-10-28T07:26:09;94684.59;;;17.81;49.07
11806;BME280;5960;42.602;23.482;2022-10-28T07:28:36;94687.84;;;17.76;48.89
11806;BME280;5960;42.602;23.482;2022-10-28T07:31:03;94681.53;;;18.11;48.63
11806;BME280;5960;42.602;23.482;2022-10-28T07:33:30;94682.72;;;18.55;47.62
11806;BME280;5960;42.602;23.482;2022-10-28T07:35:56;94676.50;;;18.88;46.99
11806;BME280;5960;42.602;23.482;2022-10-28T07:38:24;94676.00;;;19.18;46.21
11806;BME280;5960;42.602;23.482;2022-10-28T07:40:51;94684.94;;;19.37;46.14
11806;BME280;5960;42.602;23.482;2022-10-28T07:43:18;94676.97;;;19.69;44.89
11806;BME280;5960;42.602;23.482;2022-10-28T07:45:45;94679.31;;;19.91;44.45
11806;BME280;5960;42.602;23.482;2022-10-28T07:48:12;94685.56;;;20.10;43.74
11806;BME280;5960;42.602;23.482;2022-10-28T07:50:39;94679.44;;;20.28;43.15
11806;BME280;5960;42.602;23.482;2022-10-28T07:53:06;94675.22;;;20.39;42.81
11806;BME280;5960;42.602;23.482;2022-10-28T07:55:34;94672.06;;;20.49;42.83
11806;BME280;5960;42.602;23.482;2022-10-28T07:58:00;94671.16;;;20.81;42.34
11806;BME280;5960;42.602;23.482;2022-10-28T08:00:27;94677.81;;;21.09;41.15
11806;BME280;5960;42.602;23.482;2022-10-28T08:02:54;94675.16;;;21.27;40.95
11806;BME280;5960;42.602;23.482;2022-10-28T08:05:21;94680.63;;;21.51;40.74
11806;BME280;5960;42.602;23.482;2022-10-28T08:07:47;94673.94;;;21.72;40.72
11806;BME280;5960;42.602;23.482;2022-10-28T08:10:14;94683.72;;;22.09;39.70
11806;BME280;5960;42.602;23.482;2022-10-28T08:12:42;94679.88;;;22.29;39.25
11806;BME280;5960;42.602;23.482;2022-10-28T08:15:10;94682.25;;;22.37;38.05
11806;BME280;5960;42.602;23.482;2022-10-28T08:17:39;94684.50;;;22.52;37.89
11806;BME280;5960;42.602;23.482;2022-10-28T08:20:06;94687.19;;;22.64;37.42
11806;BME280;5960;42.602;23.482;2022-10-28T08:22:33;94685.66;;;22.68;38.37
11806;BME280;5960;42.602;23.482;2022-10-28T08:24:59;94683.63;;;22.99;37.66
11806;BME280;5960;42.602;23.482;2022-10-28T08:27:26;94679.25;;;23.34;37.46
11806;BME280;5960;42.602;23.482;2022-10-28T08:29:54;94680.13;;;23.51;36.43
11806;BME280;5960;42.602;23.482;2022-10-28T08:32:21;94678.78;;;23.66;36.45
11806;BME280;5960;42.602;23.482;2022-10-28T08:34:47;94682.06;;;23.68;35.78
11806;BME280;5960;42.602;23.482;2022-10-28T08:37:14;94686.81;;;23.78;36.08
11806;BME280;5960;42.602;23.482;2022-10-28T08:39:41;94680.19;;;23.97;35.54
11806;BME280;5960;42.602;23.482;2022-10-28T08:42:19;94682.19;;;23.90;36.03
11806;BME280;5960;42.602;23.482;2022-10-28T08:44:58;94686.75;;;23.89;36.00
11806;BME280;5960;42.602;23.482;2022-10-28T08:47:37;94685.97;;;24.06;35.67
11806;BME280;5960;42.602;23.482;2022-10-28T08:50:12;94683.66;;;23.81;35.73
11806;BME280;5960;42.602;23.482;2022-10-28T08:52:42;94688.25;;;23.27;36.62
11806;BME280;5960;42.602;23.482;2022-10-28T08:55:15;94683.88;;;22.38;38.42
11806;BME280;5960;42.602;23.482;2022-10-28T08:57:46;94685.28;;;21.86;38.53
11806;BME280;5960;42.602;23.482;2022-10-28T09:00:21;94681.63;;;21.69;39.68
11806;BME280;5960;42.602;23.482;2022-10-28T09:02:56;94688.28;;;22.20;38.63
11806;BME280;5960;42.602;23.482;2022-10-28T09:05:25;94676.31;;;22.71;38.89
11806;BME280;5960;42.602;23.482;2022-10-28T09:07:53;94672.84;;;23.23;37.14
11806;BME280;5960;42.602;23.482;2022-10-28T09:10:33;94671.44;;;23.61;36.44
11806;BME280;5960;42.602;23.482;2022-10-28T09:13:08;94664.19;;;24.08;35.55
11806;BME280;5960;42.602;23.482;2022-10-28T09:15:45;94672.44;;;24.18;35.26
11806;BME280;5960;42.602;23.482;2022-10-28T09:18:17;94663.53;;;24.34;34.93
11806;BME280;5960;42.602;23.482;2022-10-28T09:20:51;94664.78;;;24.44;35.33
11806;BME280;5960;42.602;23.482;2022-10-28T09:23:21;94665.25;;;24.58;34.61
11806;BME280;5960;42.602;23.482;2022-10-28T09:25:58;94653.53;;;24.86;34.46
11806;BME280;5960;42.602;23.482;2022-10-28T09:28:36;94648.66;;;24.83;33.97
11806;BME280;5960;42.602;23.482;2022-10-28T09:31:13;94652.41;;;24.82;34.06
11806;BME280;5960;42.602;23.482;2022-10-28T09:33:50;94651.53;;;24.59;34.46
11806;BME280;5960;42.602;23.482;2022-10-28T09:36:22;94650.34;;;24.89;34.97
11806;BME280;5960;42.602;23.482;2022-10-28T09:38:52;94643.97;;;25.40;33.75
11806;BME280;5960;42.602;23.482;2022-10-28T09:41:23;94637.78;;;25.94;33.69
11806;BME280;5960;42.602;23.482;2022-10-28T09:43:53;94639.38;;;26.23;32.93
11806;BME280;5960;42.602;23.482;2022-10-28T09:46:26;94635.28;;;26.53;32.71
11806;BME280;5960;42.602;23.482;2022-10-28T09:48:58;94619.28;;;26.89;31.36
11806;BME280;5960;42.602;23.482;2022-10-28T09:51:30;94618.50;;;26.94;31.99
11806;BME280;5960;42.602;23.482;2022-10-28T09:54:00;94621.28;;;27.14;31.27
11806;BME280;5960;42.602;23.482;2022-10-28T09:56:28;94615.63;;;27.21;30.96
11806;BME280;5960;42.602;23.482;2022-10-28T09:58:58;94610.09;;;26.90;32.00
11806;BME280;5960;42.602;23.482;2022-10-28T10:01:31;94609.16;;;26.26;32.09
11806;BME280;5960;42.602;23.482;2022-10-28T10:03:58;94609.47;;;26.02;32.82
11806;BME280;5960;42.602;23.482;2022-10-28T10:06:28;94608.69;;;26.39;32.83
11806;BME280;5960;42.602;23.482;2022-10-28T10:08:58;94608.41;;;26.79;32.46
11806;BME280;5960;42.602;23.482;2022-10-28T10:11:28;94610.66;;;26.97;32.47
11806;BME280;5960;42.602;23.482;2022-10-28T10:13:57;94603.75;;;27.32;30.77
11806;BME280;5960;42.602;23.482;2022-10-28T10:16:38;94603.03;;;27.53;31.30
11806;BME280;5960;42.602;23.482;2022-10-28T10:19:07;94599.50;;;27.47;30.23
11806;BME280;5960;42.602;23.482;2022-10-28T10:21:43;94597.78;;;27.30;31.37
11806;BME280;5960;42.602;23.482;2022-10-28T10:24:24;94598.88;;;27.29;31.75
11806;BME280;5960;42.602;23.482;2022-10-28T10:26:52;94586.53;;;27.59;30.69
11806;BME280;5960;42.602;23.482;2022-10-28T10:29:20;94586.53;;;27.65;29.80
11806;BME280;5960;42.602;23.482;2022-10-28T10:32:02;94590.50;;;27.31;29.96
11806;BME280;5960;42.602;23.482;2022-10-28T10:34:30;94588.56;;;27.16;30.90
11806;BME280;5960;42.602;23.482;2022-10-28T10:36:57;94591.59;;;27.35;30.80
11806;BME280;5960;42.602;23.482;2022-10-28T10:39:28;94581.41;;;27.89;29.62
11806;BME280;5960;42.602;23.482;2022-10-28T10:41:57;94578.97;;;27.87;29.55
11806;BME280;5960;42.602;23.482;2022-10-28T10:44:30;94578.53;;;27.11;30.49
11806;BME280;5960;42.602;23.482;2022-10-28T10:47:18;94566.94;;;27.26;29.61
11806;BME280;5960;42.602;23.482;2022-10-28T10:49:45;94569.94;;;27.35;30.19
11806;BME280;5960;42.602;23.482;2022-10-28T10:52:18;94568.09;;;27.56;29.99
11806;BME280;5960;42.602;23.482;2022-10-28T10:54:56;94568.41;;;27.96;29.23
11806;BME280;5960;42.602;23.482;2022-10-28T10:57:24;94556.75;;;28.32;29.38
11806;BME280;5960;42.602;23.482;2022-10-28T10:59:52;94563.16;;;28.88;28.78
11806;BME280;5960;42.602;23.482;2022-10-28T11:02:23;94569.41;;;29.38;27.91
11806;BME280;5960;42.602;23.482;2022-10-28T11:04:53;94559.88;;;29.86;27.48
11806;BME280;5960;42.602;23.482;2022-10-28T11:07:21;94559.25;;;30.29;26.59
11806;BME280;5960;42.602;23.482;2022-10-28T11:09:49;94565.75;;;30.62;26.67
11806;BME280;5960;42.602;23.482;2022-10-28T11:12:24;94548.94;;;31.04;25.60
11806;BME280;5960;42.602;23.482;2022-10-28T11:14:54;94559.09;;;31.42;24.72
11806;BME280;5960;42.602;23.482;2022-10-28T11:17:25;94557.84;;;31.72;25.40
11806;BME280;5960;42.602;23.482;2022-10-28T11:19:55;94555.31;;;31.95;24.60
11806;BME280;5960;42.602;23.482;2022-10-28T11:22:34;94555.41;;;32.23;23.92
11806;BME280;5960;42.602;23.482;2022-10-28T11:25:18;94550.25;;;33.10;23.30
11806;BME280;5960;42.602;23.482;2022-10-28T11:27:54;94547.84;;;33.82;21.93
11806;BME280;5960;42.602;23.482;2022-10-28T11:30:31;94549.44;;;34.43;21.82
11806;BME280;5960;42.602;23.482;2022-10-28T11:33:08;94542.00;;;35.24;21.55
11806;BME280;5960;42.602;23.482;2022-10-28T11:35:42;94532.69;;;36.13;20.57
11806;BME280;5960;42.602;23.482;2022-10-28T11:38:30;94540.72;;;36.83;20.02
11806;BME280;5960;42.602;23.482;2022-10-28T11:41:16;94535.69;;;36.94;19.42
11806;BME280;5960;42.602;23.482;2022-10-28T11:43:49;94536.97;;;37.27;18.86
11806;BME280;5960;42.602;23.482;2022-10-28T11:46:28;94533.66;;;36.73;19.53
11806;BME280;5960;42.602;23.482;2022-10-28T11:49:16;94538.38;;;37.63;18.14
11806;BME280;5960;42.602;23.482;2022-10-28T11:51:53;94529.38;;;36.94;18.74
11806;BME280;5960;42.602;23.482;2022-10-28T11:54:38;94525.06;;;36.27;19.14
11806;BME280;5960;42.602;23.482;2022-10-28T11:57:12;94523.66;;;35.33;19.79
11806;BME280;5960;42.602;23.482;2022-10-28T11:59:55;94532.09;;;36.64;19.21
11806;BME280;5960;42.602;23.482;2022-10-28T12:02:50;94527.94;;;38.45;17.46
11806;BME280;5960;42.602;23.482;2022-10-28T12:05:26;94521.97;;;39.95;16.70
11806;BME280;5960;42.602;23.482;2022-10-28T12:08:15;94517.84;;;41.62;15.02
11806;BME280;5960;42.602;23.482;2022-10-28T12:10:57;94520.97;;;42.39;14.84
11806;BME280;5960;42.602;23.482;2022-10-28T12:13:33;94525.03;;;42.68;14.83
11806;BME280;5960;42.602;23.482;2022-10-28T12:16:08;94517.22;;;42.51;14.92
11806;BME280;5960;42.602;23.482;2022-10-28T12:18:46;94525.06;;;42.92;14.54
11806;BME280;5960;42.602;23.482;2022-10-28T12:21:21;94515.47;;;43.66;13.72
11806;BME280;5960;42.602;23.482;2022-10-28T12:23:50;94514.06;;;44.14;13.56
11806;BME280;5960;42.602;23.482;2022-10-28T12:26:20;94512.69;;;43.66;13.58
11806;BME280;5960;42.602;23.482;2022-10-28T12:28:52;94516.16;;;43.90;13.81
11806;BME280;5960;42.602;23.482;2022-10-28T12:31:23;94503.44;;;43.89;13.44
11806;BME280;5960;42.602;23.482;2022-10-28T12:33:52;94516.31;;;43.70;13.72
11806;BME280;5960;42.602;23.482;2022-10-28T12:36:28;94510.34;;;43.14;13.72
11806;BME280;5960;42.602;23.482;2022-10-28T12:38:59;94505.53;;;42.18;14.50
11806;BME280;5960;42.602;23.482;2022-10-28T12:41:45;94510.31;;;42.64;14.14
11806;BME280;5960;42.602;23.482;2022-10-28T12:44:15;94511.31;;;43.26;13.74
11806;BME280;5960;42.602;23.482;2022-10-28T12:46:49;94503.53;;;43.96;13.19
11806;BME280;5960;42.602;23.482;2022-10-28T12:49:26;94509.81;;;43.89;13.01
11806;BME280;5960;42.602;23.482;2022-10-28T12:52:03;94500.72;;;43.93;13.32
11806;BME280;5960;42.602;23.482;2022-10-28T12:54:40;94508.63;;;44.25;13.15
11806;BME280;5960;42.602;23.482;2022-10-28T12:57:12;94507.16;;;44.76;12.68
11806;BME280;5960;42.602;23.482;2022-10-28T12:59:42;94499.72;;;44.87;12.59
11806;BME280;5960;42.602;23.482;2022-10-28T13:02:15;94504.03;;;42.44;13.67
11806;BME280;5960;42.602;23.482;2022-10-28T13:04:43;94497.63;;;40.13;14.77
11806;BME280;5960;42.602;23.482;2022-10-28T13:07:26;94500.00;;;38.34;16.55
11806;BME280;5960;42.602;23.482;2022-10-28T13:10:06;94494.53;;;39.46;15.69
11806;BME280;5960;42.602;23.482;2022-10-28T13:12:55;94488.94;;;40.43;15.10
11806;BME280;5960;42.602;23.482;2022-10-28T13:15:40;94488.53;;;41.41;14.33
11806;BME280;5960;42.602;23.482;2022-10-28T13:18:38;94494.16;;;42.04;13.79
11806;BME280;5960;42.602;23.482;2022-10-28T13:21:14;94492.03;;;42.60;13.13